Time;durP1;ratioP1;P1;durP2;ratioP2;P2;SDS_P1;SDS_P2;PMS_P1;PMS_P2;Temp;Humidity;BMP_temperature;BMP_pressure;BME280_temperature;BME280_humidity;BME280_pressure;Samples;Min_cycle;Max_cycle;Signal;HPM_P1;HPM_P2
2021/01/30 00:00:58;;;;;;;1.75;0.70;;;6.70;90.10;;;;;;6096210;23;20259;-65
2021/01/30 00:03:24;;;;;;;1.40;0.68;;;6.70;90.10;;;;;;6096166;23;20208;-65
2021/01/30 00:05:51;;;;;;;1.30;0.60;;;6.80;90.20;;;;;;6096191;23;20204;-65
2021/01/30 00:08:18;;;;;;;2.58;0.60;;;6.80;90.20;;;;;;6095853;23;20245;-65
2021/01/30 00:10:45;;;;;;;1.80;0.60;;;6.80;90.10;;;;;;6096612;23;20550;-65
2021/01/30 00:13:12;;;;;;;1.50;0.70;;;6.90;90.00;;;;;;6096167;23;20173;-64
2021/01/30 00:15:38;;;;;;;1.25;0.60;;;6.90;90.00;;;;;;6096683;23;20196;-64
2021/01/30 00:18:06;;;;;;;1.92;0.70;;;6.80;90.00;;;;;;6095835;23;20475;-65
2021/01/30 00:20:35;;;;;;;1.30;0.52;;;6.80;90.00;;;;;;6096207;23;20196;-65
2021/01/30 00:23:03;;;;;;;1.50;0.75;;;6.80;90.10;;;;;;6096176;23;20228;-66
2021/01/30 00:25:32;;;;;;;1.30;0.60;;;6.80;90.10;;;;;;6096565;23;20244;-65
2021/01/30 00:27:59;;;;;;;2.40;0.77;;;6.80;90.20;;;;;;6095671;23;20621;-65
2021/01/30 00:30:28;;;;;;;1.70;0.63;;;6.80;90.20;;;;;;6096960;23;20169;-65
2021/01/30 00:32:55;;;;;;;3.25;0.60;;;6.80;90.30;;;;;;6097416;23;20204;-66
2021/01/30 00:35:23;;;;;;;1.27;0.63;;;6.80;90.40;;;;;;6098253;23;20456;-65
2021/01/30 00:37:50;;;;;;;1.50;0.70;;;6.80;90.40;;;;;;6097876;23;20300;-65
2021/01/30 00:40:18;;;;;;;1.27;0.50;;;6.90;90.30;;;;;;6097643;23;20193;-64
2021/01/30 00:42:45;;;;;;;1.50;0.50;;;6.90;90.60;;;;;;6098044;23;20201;-64
2021/01/30 00:45:14;;;;;;;1.30;0.77;;;6.80;90.20;;;;;;6097508;23;20542;-64
2021/01/30 00:47:41;;;;;;;3.88;0.90;;;6.90;90.30;;;;;;6097880;23;20231;-66
2021/01/30 00:50:09;;;;;;;1.85;0.73;;;6.90;90.20;;;;;;6097371;23;20683;-65
2021/01/30 00:52:37;;;;;;;2.10;0.90;;;6.90;90.60;;;;;;6097746;23;20236;-65
2021/01/30 00:55:05;;;;;;;1.52;0.60;;;6.90;90.20;;;;;;6097267;23;20170;-65
2021/01/30 00:57:31;;;;;;;4.10;1.00;;;6.90;90.30;;;;;;6097276;23;20169;-65
2021/01/30 00:59:59;;;;;;;2.20;0.85;;;6.90;90.30;;;;;;6097235;23;20192;-65
2021/01/30 01:02:25;;;;;;;1.60;0.70;;;7.00;90.40;;;;;;6097304;23;20169;-65
2021/01/30 01:04:51;;;;;;;1.50;0.60;;;6.90;90.30;;;;;;6097317;23;20172;-65
2021/01/30 01:07:18;;;;;;;1.60;0.70;;;7.00;90.40;;;;;;6097676;23;20524;-64
2021/01/30 01:09:44;;;;;;;1.30;0.60;;;7.00;90.40;;;;;;6097469;23;20248;-64
2021/01/30 01:12:11;;;;;;;2.50;0.80;;;7.10;90.60;;;;;;6097134;23;20275;-65
2021/01/30 01:14:38;;;;;;;1.30;0.77;;;7.10;90.40;;;;;;6097211;23;20503;-68
2021/01/30 01:17:05;;;;;;;1.92;0.80;;;7.10;90.20;;;;;;6097521;23;20209;-66
2021/01/30 01:19:32;;;;;;;1.50;0.80;;;7.00;90.20;;;;;;6097053;23;20176;-65
2021/01/30 01:21:58;;;;;;;1.70;0.73;;;7.00;90.30;;;;;;6097180;23;20177;-64
2021/01/30 01:24:25;;;;;;;3.60;1.25;;;7.10;90.40;;;;;;6096816;23;20617;-64
2021/01/30 01:26:51;;;;;;;2.08;0.70;;;7.10;90.40;;;;;;6097414;23;20172;-65
2021/01/30 01:29:21;;;;;;;2.15;0.70;;;7.10;90.40;;;;;;6097431;23;20169;-65
2021/01/30 01:31:53;;;;;;;1.70;0.73;;;7.10;90.50;;;;;;6097385;23;20180;-65
2021/01/30 01:34:23;;;;;;;1.40;0.50;;;7.10;90.60;;;;;;6096700;23;20176;-64
2021/01/30 01:36:54;;;;;;;1.40;0.68;;;7.10;90.60;;;;;;6096942;23;20613;-64
2021/01/30 01:39:20;;;;;;;1.38;0.70;;;7.10;90.70;;;;;;6097290;23;20176;-64
2021/01/30 01:41:54;;;;;;;1.63;0.60;;;7.00;90.90;;;;;;6096648;23;20251;-65
2021/01/30 01:44:21;;;;;;;1.65;0.75;;;7.10;91.00;;;;;;6096291;23;20158;-65
2021/01/30 01:46:47;;;;;;;1.48;0.75;;;7.10;90.90;;;;;;6097025;23;20212;-65
2021/01/30 01:49:18;;;;;;;1.40;0.70;;;7.10;90.90;;;;;;6096433;23;20169;-64
2021/01/30 01:51:54;;;;;;;1.85;0.85;;;7.00;90.80;;;;;;6097138;23;20450;-65
2021/01/30 01:54:24;;;;;;;2.22;0.80;;;7.00;90.70;;;;;;6097081;23;20153;-66
2021/01/30 01:56:53;;;;;;;2.10;0.77;;;7.00;90.70;;;;;;6096751;23;20256;-64
2021/01/30 01:59:20;;;;;;;2.95;0.93;;;7.00;90.60;;;;;;6096282;23;20170;-66
2021/01/30 02:01:47;;;;;;;3.83;1.10;;;7.00;90.60;;;;;;6096685;23;20193;-65
2021/01/30 02:04:17;;;;;;;2.10;0.90;;;7.00;90.40;;;;;;6096715;23;20208;-64
2021/01/30 02:06:47;;;;;;;2.40;0.90;;;7.10;90.30;;;;;;6096943;23;20161;-66
2021/01/30 02:09:16;;;;;;;2.50;0.90;;;7.10;90.10;;;;;;6096612;23;20176;-66
2021/01/30 02:11:49;;;;;;;4.72;0.85;;;7.10;89.90;;;;;;6096915;23;20235;-65
2021/01/30 02:14:16;;;;;;;1.92;0.80;;;7.10;89.90;;;;;;6096525;23;20201;-65
2021/01/30 02:16:48;;;;;;;2.25;0.88;;;7.10;89.90;;;;;;6096551;23;20168;-66
2021/01/30 02:19:46;;;;;;;1.50;0.70;;;7.10;89.60;;;;;;6096541;23;20217;-65
2021/01/30 02:22:45;;;;;;;1.85;0.80;;;7.20;88.70;;;;;;6088769;23;20267;-65
2021/01/30 02:25:48;;;;;;;2.60;0.80;;;7.20;88.60;;;;;;6059827;23;20196;-64
2021/01/30 02:28:22;;;;;;;1.55;0.75;;;7.20;88.80;;;;;;6096997;23;20157;-65
2021/01/30 02:31:20;;;;;;;1.92;0.85;;;7.20;89.20;;;;;;6096850;23;20158;-65
2021/01/30 02:34:31;;;;;;;1.40;0.60;;;7.30;88.30;;;;;;6097007;23;20172;-64
2021/01/30 02:37:02;;;;;;;1.60;1.35;;;7.20;87.40;;;;;;6096694;23;20209;-64
2021/01/30 02:39:34;;;;;;;1.30;0.70;;;7.20;87.00;;;;;;6096193;23;20165;-65
2021/01/30 02:42:09;;;;;;;1.58;0.77;;;7.20;87.20;;;;;;6096688;23;20181;-65
2021/01/30 02:44:39;;;;;;;1.88;0.95;;;7.10;86.70;;;;;;6096192;23;20157;-65
2021/01/30 02:47:09;;;;;;;1.52;0.60;;;7.10;86.40;;;;;;6096862;23;20153;-64
2021/01/30 02:49:46;;;;;;;1.73;0.70;;;7.10;86.00;;;;;;6096471;23;20537;-65
2021/01/30 02:52:17;;;;;;;2.03;0.80;;;7.00;86.10;;;;;;6096633;23;20510;-65
2021/01/30 02:54:44;;;;;;;1.90;1.08;;;7.00;87.00;;;;;;6095838;23;20240;-65
2021/01/30 02:57:13;;;;;;;1.80;0.60;;;7.00;86.70;;;;;;6096075;23;20173;-65
2021/01/30 02:59:44;;;;;;;1.70;0.73;;;6.90;86.60;;;;;;6096171;23;20169;-65
2021/01/30 03:02:11;;;;;;;2.22;0.85;;;6.90;86.90;;;;;;6096593;23;20593;-65
2021/01/30 03:04:37;;;;;;;1.85;0.77;;;6.90;86.80;;;;;;6096151;23;20169;-65
2021/01/30 03:07:20;;;;;;;1.58;0.80;;;6.80;86.50;;;;;;6096118;23;20165;-66
2021/01/30 03:09:55;;;;;;;1.30;0.60;;;6.80;86.50;;;;;;6095869;23;20153;-65
2021/01/30 03:12:26;;;;;;;1.60;0.60;;;6.80;86.70;;;;;;6096775;23;20191;-65
2021/01/30 03:14:56;;;;;;;2.10;0.70;;;6.80;86.90;;;;;;6095945;23;20623;-65
2021/01/30 03:17:27;;;;;;;1.40;0.60;;;6.80;86.70;;;;;;6096441;23;20162;-65
2021/01/30 03:19:55;;;;;;;3.38;0.63;;;6.80;86.70;;;;;;6095518;23;20166;-65
2021/01/30 03:22:24;;;;;;;1.55;0.60;;;6.80;86.90;;;;;;6096473;23;20476;-66
2021/01/30 03:24:53;;;;;;;2.25;0.60;;;6.80;87.50;;;;;;6095930;23;20208;-65
2021/01/30 03:27:21;;;;;;;1.50;0.70;;;6.90;87.60;;;;;;6096274;23;20177;-65
2021/01/30 03:29:49;;;;;;;2.45;0.70;;;6.90;87.00;;;;;;6095994;23;20169;-66
2021/01/30 03:32:18;;;;;;;1.70;0.60;;;6.90;86.30;;;;;;6096183;23;20703;-65
2021/01/30 03:34:44;;;;;;;1.40;0.60;;;6.90;86.20;;;;;;6095966;23;20483;-65
2021/01/30 03:37:11;;;;;;;2.45;0.88;;;6.90;86.00;;;;;;6095550;23;20169;-67
2021/01/30 03:39:38;;;;;;;2.53;0.80;;;6.90;86.20;;;;;;6096147;23;20165;-64
2021/01/30 03:42:05;;;;;;;1.50;0.70;;;6.80;86.60;;;;;;6095829;23;20228;-65
2021/01/30 03:44:32;;;;;;;1.98;0.85;;;6.80;86.80;;;;;;6096462;23;20180;-65
2021/01/30 03:46:59;;;;;;;2.92;1.20;;;6.80;86.60;;;;;;6096296;23;20181;-65
2021/01/30 03:49:25;;;;;;;2.65;0.82;;;6.70;86.60;;;;;;6095935;23;20169;-66
2021/01/30 03:51:51;;;;;;;2.05;1.00;;;6.70;86.60;;;;;;6095970;23;20184;-65
2021/01/30 03:54:18;;;;;;;1.80;0.80;;;6.80;86.20;;;;;;6096343;23;20178;-64
2021/01/30 03:56:46;;;;;;;4.95;0.77;;;6.80;85.90;;;;;;6096140;23;20173;-64
2021/01/30 03:59:18;;;;;;;1.50;0.70;;;6.90;85.60;;;;;;6095728;23;20224;-65
2021/01/30 04:01:45;;;;;;;2.15;0.90;;;6.90;85.10;;;;;;6096526;23;20208;-65
2021/01/30 04:04:12;;;;;;;3.70;0.85;;;6.80;84.50;;;;;;6096066;23;20169;-65
2021/01/30 04:06:38;;;;;;;4.07;1.00;;;6.80;84.40;;;;;;6097565;23;20177;-65
2021/01/30 04:09:06;;;;;;;3.47;1.00;;;6.80;84.40;;;;;;6097949;23;20173;-65
2021/01/30 04:11:34;;;;;;;2.97;0.90;;;6.70;84.30;;;;;;6098536;23;20173;-64
2021/01/30 04:14:01;;;;;;;4.20;1.35;;;6.70;83.80;;;;;;6097671;23;20209;-65
2021/01/30 04:16:28;;;;;;;1.60;0.90;;;6.70;83.60;;;;;;6098071;23;20157;-65
2021/01/30 04:18:55;;;;;;;2.28;0.70;;;6.60;83.20;;;;;;6098101;23;20479;-64
2021/01/30 04:21:21;;;;;;;3.53;1.65;;;6.60;83.10;;;;;;6098195;23;20189;-65
2021/01/30 04:23:49;;;;;;;3.60;1.55;;;6.60;82.90;;;;;;6098013;23;20215;-65
2021/01/30 04:26:17;;;;;;;2.45;1.00;;;6.60;82.60;;;;;;6098073;23;20169;-65
2021/01/30 04:28:44;;;;;;;2.50;1.25;;;6.50;82.60;;;;;;6097961;23;20617;-64
2021/01/30 04:31:11;;;;;;;2.38;0.82;;;6.60;82.60;;;;;;6098028;23;20177;-64
2021/01/30 04:33:38;;;;;;;3.22;1.00;;;6.50;82.60;;;;;;6098240;23;20188;-65
2021/01/30 04:36:05;;;;;;;3.25;1.00;;;6.60;82.40;;;;;;6097397;23;20224;-65
2021/01/30 04:38:31;;;;;;;1.98;0.80;;;6.60;82.10;;;;;;6098261;23;20172;-65
2021/01/30 04:41:03;;;;;;;2.95;0.75;;;6.60;82.00;;;;;;6096937;23;20193;-65
2021/01/30 04:43:34;;;;;;;7.20;2.05;;;6.60;81.80;;;;;;6097280;23;20193;-67
2021/01/30 04:46:07;;;;;;;1.88;0.90;;;6.60;81.50;;;;;;6097479;23;20157;-64
2021/01/30 04:48:51;;;;;;;2.30;0.98;;;6.60;81.60;;;;;;6097649;23;20181;-65
2021/01/30 04:51:24;;;;;;;4.22;1.20;;;6.70;81.60;;;;;;6097134;23;20201;-65
2021/01/30 04:54:13;;;;;;;5.38;1.10;;;6.70;81.10;;;;;;6097931;23;20175;-66
2021/01/30 04:56:57;;;;;;;3.10;0.80;;;6.60;81.40;;;;;;6097442;23;20161;-65
2021/01/30 04:59:37;;;;;;;5.82;1.20;;;6.60;80.70;;;;;;6098085;23;20161;-65
2021/01/30 05:02:12;;;;;;;2.83;0.90;;;6.70;80.60;;;;;;6098029;23;20181;-64
2021/01/30 05:04:43;;;;;;;2.10;0.80;;;6.70;80.40;;;;;;6097478;23;20161;-66
2021/01/30 05:07:25;;;;;;;3.13;1.27;;;6.70;79.80;;;;;;6097841;23;20161;-65
2021/01/30 05:09:55;;;;;;;1.70;0.80;;;6.70;79.30;;;;;;6097855;23;20161;-66
2021/01/30 05:12:27;;;;;;;1.80;0.90;;;6.80;79.10;;;;;;6098505;23;20169;-65
2021/01/30 05:15:00;;;;;;;1.92;0.80;;;6.80;78.80;;;;;;6097243;23;20200;-65
2021/01/30 05:17:30;;;;;;;1.92;1.05;;;6.90;78.40;;;;;;6096989;23;20158;-65
2021/01/30 05:20:04;;;;;;;5.32;1.20;;;6.90;77.80;;;;;;6097410;23;20178;-65
2021/01/30 05:22:38;;;;;;;3.90;1.67;;;6.90;77.50;;;;;;6097882;23;20529;-64
2021/01/30 05:25:09;;;;;;;4.25;1.10;;;6.90;76.20;;;;;;6097496;23;20523;-65
2021/01/30 05:28:03;;;;;;;2.15;0.82;;;7.00;76.90;;;;;;6097588;23;20244;-65
2021/01/30 05:30:41;;;;;;;2.60;1.15;;;7.00;76.60;;;;;;6097505;23;20158;-66
2021/01/30 05:33:27;;;;;;;2.40;0.70;;;7.00;76.50;;;;;;6097460;23;20153;-65
2021/01/30 05:36:02;;;;;;;3.30;0.80;;;7.00;75.90;;;;;;6097493;23;20212;-68
2021/01/30 05:38:43;;;;;;;3.08;1.10;;;6.90;76.00;;;;;;6097049;23;20261;-65
2021/01/30 05:41:17;;;;;;;2.47;0.95;;;6.90;75.60;;;;;;6097668;23;20196;-65
2021/01/30 05:43:50;;;;;;;1.70;0.70;;;6.90;75.80;;;;;;6097390;23;20157;-65
2021/01/30 05:46:24;;;;;;;2.22;0.98;;;6.90;74.80;;;;;;6097714;23;20162;-66
2021/01/30 05:48:53;;;;;;;3.10;0.95;;;6.90;75.00;;;;;;6097412;23;20163;-65
2021/01/30 05:51:30;;;;;;;3.42;0.90;;;6.90;75.20;;;;;;6097150;23;20169;-65
2021/01/30 05:53:57;;;;;;;5.25;1.52;;;6.90;75.40;;;;;;6096775;23;20156;-65
2021/01/30 05:56:23;;;;;;;7.13;1.17;;;6.90;74.60;;;;;;6097168;23;20221;-65
2021/01/30 05:58:50;;;;;;;2.60;0.90;;;6.90;74.50;;;;;;6097275;23;20253;-64
2021/01/30 06:01:23;;;;;;;7.65;1.92;;;6.90;74.40;;;;;;6097106;23;20197;-67
2021/01/30 06:04:00;;;;;;;3.67;1.33;;;7.00;75.10;;;;;;6097559;23;20161;-65
2021/01/30 06:06:32;;;;;;;3.20;1.15;;;7.00;75.00;;;;;;6097003;23;20157;-65
2021/01/30 06:09:02;;;;;;;2.13;0.70;;;7.10;75.00;;;;;;6097463;23;20157;-65
2021/01/30 06:11:39;;;;;;;2.33;1.10;;;7.00;74.30;;;;;;6096928;23;20165;-65
2021/01/30 06:14:07;;;;;;;2.47;0.90;;;7.00;74.40;;;;;;6097413;23;20192;-65
2021/01/30 06:16:41;;;;;;;3.97;1.27;;;7.00;74.20;;;;;;6096352;23;20157;-65
2021/01/30 06:19:16;;;;;;;2.50;1.10;;;7.10;74.10;;;;;;6097530;23;20153;-64
2021/01/30 06:21:46;;;;;;;6.38;1.80;;;7.10;73.90;;;;;;6096757;23;20236;-65
2021/01/30 06:24:26;;;;;;;4.05;0.80;;;7.00;74.10;;;;;;6096823;23;20624;-65
2021/01/30 06:26:53;;;;;;;2.53;1.02;;;7.00;74.20;;;;;;6097447;23;20179;-65
2021/01/30 06:29:34;;;;;;;1.95;0.80;;;7.10;73.80;;;;;;6096523;23;20176;-65
2021/01/30 06:32:21;;;;;;;4.05;0.98;;;7.10;74.00;;;;;;6096946;23;20593;-65
2021/01/30 06:34:50;;;;;;;2.95;1.42;;;7.00;73.90;;;;;;6097306;23;20157;-65
2021/01/30 06:37:34;;;;;;;2.40;1.05;;;7.00;74.30;;;;;;6096474;23;20176;-65
2021/01/30 06:40:07;;;;;;;3.35;0.95;;;7.00;74.50;;;;;;6097280;23;20153;-65
2021/01/30 06:42:35;;;;;;;1.55;0.90;;;7.00;73.80;;;;;;6096950;23;20528;-65
2021/01/30 06:45:06;;;;;;;3.75;1.15;;;7.00;74.20;;;;;;6097071;23;20212;-65
2021/01/30 06:47:45;;;;;;;1.80;0.77;;;7.10;73.80;;;;;;6096214;23;20161;-67
2021/01/30 06:50:18;;;;;;;2.90;1.15;;;7.10;73.70;;;;;;6096552;23;20158;-65
2021/01/30 06:52:45;;;;;;;5.63;1.38;;;7.10;73.80;;;;;;6097111;23;20157;-65
2021/01/30 06:55:14;;;;;;;2.42;0.82;;;7.10;74.10;;;;;;6096644;23;20176;-65
2021/01/30 06:57:50;;;;;;;2.75;0.85;;;7.20;73.90;;;;;;6096432;23;20170;-65
2021/01/30 07:00:29;;;;;;;2.33;1.05;;;7.20;73.70;;;;;;6096543;23;20165;-65
2021/01/30 07:03:08;;;;;;;3.58;1.00;;;7.20;73.70;;;;;;6096441;23;20157;-65
2021/01/30 07:05:44;;;;;;;3.58;0.90;;;7.30;73.70;;;;;;6096685;23;20480;-65
2021/01/30 07:08:36;;;;;;;1.75;0.80;;;7.20;73.40;;;;;;6096630;23;20660;-65
2021/01/30 07:11:23;;;;;;;2.95;0.98;;;7.30;74.00;;;;;;6096512;23;20454;-65
2021/01/30 07:14:01;;;;;;;2.40;0.82;;;7.30;73.90;;;;;;6096794;23;20209;-65
2021/01/30 07:16:41;;;;;;;2.22;0.93;;;7.40;73.60;;;;;;6096560;23;20165;-65
2021/01/30 07:19:18;;;;;;;2.55;1.27;;;7.50;73.60;;;;;;6096426;23;20232;-66
2021/01/30 07:21:50;;;;;;;2.40;1.10;;;7.60;73.20;;;;;;6096400;23;20185;-65
2021/01/30 07:24:25;;;;;;;3.08;1.08;;;7.70;73.20;;;;;;6095880;23;20161;-65
2021/01/30 07:26:57;;;;;;;4.35;1.35;;;7.70;72.50;;;;;;6096968;23;20160;-65
2021/01/30 07:29:35;;;;;;;4.43;1.23;;;7.70;72.90;;;;;;6096174;23;20161;-65
2021/01/30 07:32:09;;;;;;;2.55;0.90;;;7.80;73.20;;;;;;6096414;23;20635;-65
2021/01/30 07:34:40;;;;;;;4.05;1.17;;;7.80;72.60;;;;;;6096367;23;20213;-65
2021/01/30 07:37:14;;;;;;;4.72;1.17;;;7.80;72.00;;;;;;6096909;23;20255;-65
2021/01/30 07:39:45;;;;;;;3.88;1.45;;;7.80;72.30;;;;;;6096860;23;20156;-65
2021/01/30 07:42:16;;;;;;;4.90;1.40;;;7.80;72.30;;;;;;6099563;23;20188;-65
2021/01/30 07:44:55;;;;;;;3.92;1.05;;;7.80;72.10;;;;;;6099247;23;20157;-64
2021/01/30 07:47:27;;;;;;;3.60;1.50;;;7.80;72.40;;;;;;6099397;23;20191;-65
2021/01/30 07:50:00;;;;;;;4.30;1.20;;;7.80;72.10;;;;;;6099860;23;20153;-65
2021/01/30 07:52:30;;;;;;;3.17;1.45;;;7.80;72.10;;;;;;6097073;23;20160;-65
2021/01/30 07:55:00;;;;;;;4.38;1.27;;;7.90;72.40;;;;;;6099196;23;20153;-67
2021/01/30 07:58:00;;;;;;;3.50;1.50;;;7.90;72.00;;;;;;6098778;23;20201;-65
2021/01/30 08:00:36;;;;;;;3.85;1.35;;;7.80;72.00;;;;;;6098975;23;20164;-65
2021/01/30 08:03:31;;;;;;;6.53;1.10;;;7.80;71.90;;;;;;6098438;23;20165;-65
2021/01/30 08:06:10;;;;;;;2.05;1.00;;;7.70;72.00;;;;;;6061693;23;20169;-67
2021/01/30 08:08:41;;;;;;;3.70;1.30;;;7.80;72.20;;;;;;6098693;23;20157;-65
2021/01/30 08:11:21;;;;;;;4.60;1.02;;;7.90;72.00;;;;;;6099215;23;20153;-65
2021/01/30 08:13:57;;;;;;;5.00;1.13;;;7.90;71.80;;;;;;6098878;23;20627;-65
2021/01/30 08:16:32;;;;;;;4.32;1.30;;;7.90;71.90;;;;;;6098946;23;20249;-65
2021/01/30 08:19:04;;;;;;;3.72;1.45;;;8.00;71.20;;;;;;6098937;23;20153;-64
2021/01/30 08:21:51;;;;;;;6.22;1.58;;;8.10;71.40;;;;;;6098595;23;20232;-65
2021/01/30 08:24:26;;;;;;;3.80;1.38;;;8.20;71.30;;;;;;6099125;23;20518;-64
2021/01/30 08:26:59;;;;;;;3.55;1.10;;;8.30;70.30;;;;;;6098930;23;20172;-65
2021/01/30 08:29:29;;;;;;;2.40;1.00;;;8.30;69.60;;;;;;6098978;23;20597;-65
2021/01/30 08:32:00;;;;;;;8.75;1.95;;;8.30;69.40;;;;;;6098182;23;20212;-65
2021/01/30 08:34:33;;;;;;;2.60;1.10;;;8.40;69.40;;;;;;6098867;23;20667;-67
2021/01/30 08:37:13;;;;;;;3.72;1.48;;;8.50;69.40;;;;;;6098132;23;20158;-68
2021/01/30 08:40:04;;;;;;;7.25;1.63;;;8.50;69.10;;;;;;6098827;23;20161;-65
2021/01/30 08:42:33;;;;;;;3.20;1.30;;;8.70;69.00;;;;;;6098692;23;20181;-64
2021/01/30 08:45:03;;;;;;;4.38;1.38;;;8.90;69.50;;;;;;6098729;23;20171;-65
2021/01/30 08:47:31;;;;;;;4.60;1.02;;;9.20;68.50;;;;;;6098705;23;20169;-66
2021/01/30 08:50:07;;;;;;;7.90;1.70;;;9.90;69.60;;;;;;6098351;23;20173;-65
2021/01/30 08:52:41;;;;;;;3.45;1.40;;;11.00;65.10;;;;;;6097047;23;20605;-65
2021/01/30 08:55:51;;;;;;;4.22;1.10;;;11.70;62.20;;;;;;6097545;23;20156;-65
2021/01/30 08:58:46;;;;;;;3.45;1.23;;;12.10;59.20;;;;;;6008720;23;20175;-64
2021/01/30 09:01:49;;;;;;;4.72;1.75;;;12.20;58.20;;;;;;6094391;23;20204;-65
2021/01/30 09:05:05;;;;;;;4.65;1.50;;;12.40;57.60;;;;;;6096682;23;20307;-66
2021/01/30 09:07:43;;;;;;;4.40;1.80;;;13.00;56.90;;;;;;6097310;23;20489;-64
2021/01/30 09:10:33;;;;;;;9.02;2.65;;;13.60;55.80;;;;;;6096908;23;20192;-65
2021/01/30 09:13:06;;;;;;;3.80;1.20;;;14.80;54.50;;;;;;6097462;23;20157;-65
2021/01/30 09:15:56;;;;;;;3.30;1.30;;;16.00;53.10;;;;;;6097239;23;20433;-65
2021/01/30 09:18:40;;;;;;;3.73;1.20;;;17.20;48.80;;;;;;6097013;23;20413;-66
2021/01/30 09:21:11;;;;;;;5.20;1.23;;;18.20;45.60;;;;;;6096028;23;20772;-67
2021/01/30 09:23:47;;;;;;;4.90;1.93;;;19.30;44.40;;;;;;6096810;23;20427;-71
2021/01/30 09:26:20;;;;;;;4.23;1.97;;;20.20;41.50;;;;;;6097230;23;20703;-66
2021/01/30 09:28:54;;;;;;;6.47;1.60;;;20.90;38.90;;;;;;6097507;23;20480;-66
2021/01/30 09:31:23;;;;;;;4.07;1.33;;;21.50;37.10;;;;;;6096670;23;20445;-68
2021/01/30 09:34:01;;;;;;;6.50;1.50;;;22.10;36.20;;;;;;6096902;23;20433;-66
2021/01/30 09:36:33;;;;;;;5.03;1.37;;;22.50;34.10;;;;;;6096969;23;20389;-67
2021/01/30 09:39:20;;;;;;;4.67;1.37;;;22.80;32.20;;;;;;6096825;23;20388;-66
2021/01/30 09:41:48;;;;;;;2.33;0.83;;;23.20;32.60;;;;;;6092768;23;20433;-67
2021/01/30 09:44:21;;;;;;;3.20;0.90;;;23.60;31.60;;;;;;6096005;23;20409;-65
2021/01/30 09:46:54;;;;;;;4.90;1.30;;;24.00;30.30;;;;;;6096364;23;20389;-65
2021/01/30 09:49:24;;;;;;;5.60;3.20;;;24.50;29.90;;;;;;6095952;23;20390;-67
2021/01/30 09:51:57;;;;;;;3.67;1.40;;;25.00;30.00;;;;;;6096335;23;20409;-66
2021/01/30 09:54:28;;;;;;;7.90;2.00;;;25.40;28.90;;;;;;6096027;23;20425;-66
2021/01/30 09:57:04;;;;;;;4.03;1.50;;;25.60;27.30;;;;;;6096428;23;20390;-66
2021/01/30 09:59:31;;;;;;;3.10;1.37;;;25.40;26.70;;;;;;6087234;23;20689;-70
2021/01/30 10:02:11;;;;;;;3.27;1.00;;;25.40;27.20;;;;;;6091221;23;20445;-65
2021/01/30 10:04:37;;;;;;;4.77;1.27;;;25.80;26.80;;;;;;6094211;23;20389;-66
2021/01/30 10:07:10;;;;;;;2.67;1.20;;;26.00;26.30;;;;;;6095937;23;20435;-65
2021/01/30 10:09:41;;;;;;;2.80;1.10;;;26.10;25.20;;;;;;6085520;23;20501;-65
2021/01/30 10:12:09;;;;;;;3.40;1.20;;;26.30;25.90;;;;;;6038343;23;20387;-64
2021/01/30 10:14:41;;;;;;;3.30;1.23;;;26.10;25.50;;;;;;6038982;23;20813;-64
2021/01/30 10:17:14;;;;;;;4.90;2.30;;;25.00;24.90;;;;;;6038934;23;20727;-64
2021/01/30 10:19:45;;;;;;;3.73;1.67;;;24.10;26.30;;;;;;6038440;23;20699;-64
2021/01/30 10:22:16;;;;;;;3.80;1.40;;;23.40;26.40;;;;;;6038258;23;20439;-64
2021/01/30 10:24:45;;;;;;;3.40;1.20;;;22.80;27.10;;;;;;6038416;23;20494;-64
2021/01/30 10:27:18;;;;;;;3.20;1.07;;;22.70;28.00;;;;;;6035382;23;20430;-64
2021/01/30 10:29:45;;;;;;;4.60;0.90;;;22.90;28.10;;;;;;6037566;23;20902;-65
2021/01/30 10:32:40;;;;;;;3.20;1.00;;;23.00;28.20;;;;;;6037144;23;20491;-66
2021/01/30 10:35:19;;;;;;;4.30;1.50;;;23.00;28.00;;;;;;6036471;23;20929;-64
2021/01/30 10:37:49;;;;;;;3.97;1.30;;;22.70;28.20;;;;;;6038236;23;20387;-65
2021/01/30 10:40:24;;;;;;;2.83;1.20;;;22.50;28.50;;;;;;6036662;23;20879;-65
2021/01/30 10:42:54;;;;;;;7.70;1.50;;;22.10;29.00;;;;;;6038043;23;20454;-64
2021/01/30 10:45:28;;;;;;;2.23;0.90;;;21.60;29.20;;;;;;6038603;23;20410;-66
2021/01/30 10:48:08;;;;;;;3.80;1.20;;;21.00;29.30;;;;;;6037908;23;20419;-65
2021/01/30 10:50:37;;;;;;;3.30;1.00;;;20.40;29.20;;;;;;6036003;23;20527;-65
2021/01/30 10:53:24;;;;;;;4.90;1.87;;;19.80;30.00;;;;;;6034435;23;20411;-64
2021/01/30 10:55:52;;;;;;;8.47;2.20;;;19.30;31.10;;;;;;6038862;23;20391;-65
2021/01/30 10:58:31;;;;;;;4.20;2.40;;;18.80;32.60;;;;;;6038894;23;20442;-64
2021/01/30 11:01:03;;;;;;;5.87;2.77;;;18.50;33.10;;;;;;6039173;23;20726;-66
2021/01/30 11:03:43;;;;;;;8.90;4.23;;;18.30;33.40;;;;;;6039132;23;20414;-65
2021/01/30 11:06:23;;;;;;;4.83;2.40;;;18.20;33.80;;;;;;6038990;23;20429;-65
2021/01/30 11:08:56;;;;;;;2.53;1.00;;;18.30;32.90;;;;;;6038650;23;20387;-66
2021/01/30 11:11:28;;;;;;;3.03;1.20;;;18.30;33.00;;;;;;6038714;23;20402;-66
2021/01/30 11:14:05;;;;;;;2.20;0.90;;;18.50;32.90;;;;;;6039280;23;20423;-66
2021/01/30 11:16:40;;;;;;;1.70;0.80;;;19.20;33.80;;;;;;6038232;23;20441;-65
2021/01/30 11:19:25;;;;;;;3.47;1.30;;;20.50;32.00;;;;;;6038964;23;20410;-65
2021/01/30 11:22:04;;;;;;;3.50;0.90;;;21.10;29.70;;;;;;6038639;23;20521;-67
2021/01/30 11:24:35;;;;;;;2.83;0.83;;;20.60;28.70;;;;;;6038810;23;20425;-65
2021/01/30 11:27:04;;;;;;;3.10;1.00;;;20.10;29.30;;;;;;6038535;23;20910;-63
2021/01/30 11:29:44;;;;;;;2.90;0.60;;;19.70;29.60;;;;;;6038876;23;20399;-64
2021/01/30 11:32:16;;;;;;;2.53;0.70;;;19.10;28.90;;;;;;6038797;23;20478;-65
2021/01/30 11:34:52;;;;;;;2.23;0.70;;;18.70;29.60;;;;;;6038809;23;20429;-70
2021/01/30 11:37:19;;;;;;;1.87;0.70;;;18.00;29.70;;;;;;6038573;23;20481;-64
2021/01/30 11:39:47;;;;;;;2.30;1.07;;;17.40;29.70;;;;;;6038398;23;20399;-64
2021/01/30 11:42:14;;;;;;;4.87;2.87;;;16.90;31.00;;;;;;6038151;23;20474;-64
2021/01/30 11:44:42;;;;;;;10.00;6.40;;;16.50;31.70;;;;;;6038526;23;20407;-65
2021/01/30 11:47:10;;;;;;;15.40;11.10;;;16.00;32.50;;;;;;6038757;23;20435;-64
2021/01/30 11:49:37;;;;;;;6.23;4.10;;;15.70;33.50;;;;;;6038823;23;20399;-65
2021/01/30 11:52:15;;;;;;;7.23;2.80;;;15.30;33.20;;;;;;6038172;23;20409;-64
2021/01/30 11:54:41;;;;;;;3.37;1.40;;;15.10;34.00;;;;;;6038621;23;20387;-65
2021/01/30 11:57:13;;;;;;;5.37;2.03;;;14.70;34.40;;;;;;6038600;23;20483;-64
2021/01/30 11:59:40;;;;;;;2.10;0.80;;;14.40;34.90;;;;;;6037132;23;20396;-65
2021/01/30 12:02:13;;;;;;;8.03;3.63;;;14.20;35.00;;;;;;6038462;23;20446;-64
2021/01/30 12:04:40;;;;;;;7.07;4.20;;;13.90;35.60;;;;;;6038724;23;20387;-64
2021/01/30 12:07:07;;;;;;;6.10;3.27;;;13.70;36.20;;;;;;6037843;23;20410;-66
2021/01/30 12:09:36;;;;;;;3.17;1.30;;;13.60;36.60;;;;;;6037468;23;20426;-66
2021/01/30 12:12:02;;;;;;;4.70;1.77;;;13.40;36.50;;;;;;6038274;23;21044;-65
2021/01/30 12:14:29;;;;;;;3.90;0.97;;;13.30;37.10;;;;;;6034592;23;20430;-65
2021/01/30 12:16:56;;;;;;;2.37;1.13;;;13.20;37.20;;;;;;6037338;23;20470;-65
2021/01/30 12:19:23;;;;;;;3.53;1.50;;;13.00;37.30;;;;;;6037385;23;20407;-69
2021/01/30 12:21:50;;;;;;;3.20;1.10;;;12.90;38.00;;;;;;6037430;23;20446;-65
2021/01/30 12:24:18;;;;;;;4.10;1.10;;;12.80;38.50;;;;;;6037866;23;20553;-64
2021/01/30 12:26:50;;;;;;;1.55;0.88;;;12.70;38.60;;;;;;6038658;23;20406;-64
2021/01/30 12:29:17;;;;;;;5.80;1.13;;;12.70;39.00;;;;;;6039323;23;20158;-64
2021/01/30 12:31:44;;;;;;;6.07;0.80;;;12.60;39.40;;;;;;6039822;23;20222;-65
2021/01/30 12:34:10;;;;;;;2.15;0.90;;;12.50;39.20;;;;;;6039471;23;20403;-64
2021/01/30 12:36:38;;;;;;;2.25;0.70;;;12.40;39.40;;;;;;6039321;23;20230;-64
2021/01/30 12:39:07;;;;;;;3.30;1.90;;;12.40;40.00;;;;;;6039497;23;20610;-64
2021/01/30 12:41:35;;;;;;;3.08;1.35;;;12.40;40.20;;;;;;6040152;23;20810;-65
2021/01/30 12:44:02;;;;;;;3.30;1.10;;;12.30;40.80;;;;;;6038094;23;20216;-66
2021/01/30 12:46:43;;;;;;;1.75;0.65;;;12.30;40.60;;;;;;6039491;23;20166;-64
2021/01/30 12:49:11;;;;;;;2.45;1.40;;;12.30;41.50;;;;;;6039999;23;20155;-67
2021/01/30 12:51:39;;;;;;;4.07;0.90;;;12.40;41.50;;;;;;6038413;23;20233;-64
2021/01/30 12:54:08;;;;;;;2.00;0.80;;;12.30;41.50;;;;;;6038984;23;20166;-64
2021/01/30 12:56:36;;;;;;;2.20;1.15;;;12.30;41.60;;;;;;6039351;23;20197;-64
2021/01/30 12:59:03;;;;;;;2.92;1.20;;;12.30;41.40;;;;;;6038422;23;20207;-65
2021/01/30 13:01:31;;;;;;;2.40;1.20;;;12.40;41.50;;;;;;6038525;23;20197;-65
2021/01/30 13:03:58;;;;;;;1.92;0.90;;;12.40;42.00;;;;;;6038813;23;20181;-69
2021/01/30 13:06:36;;;;;;;3.17;1.00;;;12.50;41.60;;;;;;6038810;23;20166;-64
2021/01/30 13:09:05;;;;;;;3.45;1.17;;;12.60;41.80;;;;;;6039020;23;20238;-64
2021/01/30 13:11:32;;;;;;;4.07;0.90;;;12.60;42.10;;;;;;6039387;23;20213;-65
2021/01/30 13:14:05;;;;;;;3.33;0.80;;;12.70;42.60;;;;;;6039130;23;20195;-64
2021/01/30 13:16:36;;;;;;;3.85;0.93;;;12.80;42.20;;;;;;6039678;23;20158;-64
2021/01/30 13:19:05;;;;;;;2.97;0.70;;;12.80;42.10;;;;;;6038742;23;20186;-64
2021/01/30 13:21:37;;;;;;;1.40;0.73;;;12.70;42.00;;;;;;6039478;23;20506;-66